Time;durP1;ratioP1;P1;durP2;ratioP2;P2;SDS_P1;SDS_P2;PMS_P1;PMS_P2;Temp;Humidity;BMP_temperature;BMP_pressure;BME280_temperature;BME280_humidity;BME280_pressure;Samples;Min_cycle;Max_cycle;Signal;HPM_P1;HPM_P2
2022/02/26 00:00:47;;;;;;;0.10;0.10;;;;;;;5.23;63.95;103335.16;5044441;28;20041;-80
2022/02/26 00:03:13;;;;;;;0.10;0.10;;;;;;;5.20;64.22;103330.69;5039776;28;20396;-82
2022/02/26 00:05:41;;;;;;;0.10;0.10;;;;;;;5.18;63.95;103337.59;5040018;28;20029;-84
2022/02/26 00:08:07;;;;;;;0.10;0.10;;;;;;;5.13;64.20;103350.53;5041500;28;20030;-82
2022/02/26 00:10:33;;;;;;;0.10;0.10;;;;;;;5.11;63.65;103346.94;5040763;28;20116;-82
2022/02/26 00:12:59;;;;;;;0.10;0.10;;;;;;;5.11;63.36;103349.56;5042241;28;20029;-82
2022/02/26 00:15:25;;;;;;;0.47;0.47;;;;;;;5.09;63.79;103358.22;5043577;28;20030;-83
2022/02/26 00:17:52;;;;;;;0.10;0.10;;;;;;;5.05;63.51;103358.91;5044635;28;20067;-80
2022/02/26 00:20:18;;;;;;;0.20;0.20;;;;;;;5.01;63.50;103366.66;5040706;28;20397;-84
2022/02/26 00:22:44;;;;;;;0.10;0.10;;;;;;;4.97;63.77;103370.00;5043315;28;20147;-81
2022/02/26 00:25:11;;;;;;;0.10;0.10;;;;;;;4.93;64.41;103367.16;5040120;28;20124;-83
2022/02/26 00:27:38;;;;;;;0.10;0.10;;;;;;;4.90;64.48;103373.19;5045079;28;20108;-83
2022/02/26 00:30:06;;;;;;;0.10;0.10;;;;;;;4.86;63.79;103374.78;5047045;28;20025;-82
2022/02/26 00:32:32;;;;;;;0.10;0.10;;;;;;;4.82;64.43;103383.38;5036936;28;20052;-83
2022/02/26 00:34:58;;;;;;;0.10;0.10;;;;;;;4.79;64.99;103385.84;5045012;28;20037;-82
2022/02/26 00:37:24;;;;;;;0.10;0.10;;;;;;;4.81;64.41;103384.19;5041005;28;20053;-83
2022/02/26 00:39:50;;;;;;;0.15;0.15;;;;;;;4.83;63.71;103386.88;5040201;28;20036;-82
2022/02/26 00:42:17;;;;;;;0.10;0.10;;;;;;;4.84;64.82;103396.56;5040525;28;20021;-82
2022/02/26 00:44:43;;;;;;;0.10;0.10;;;;;;;4.88;64.55;103400.22;5051931;28;20028;-82
2022/02/26 00:47:09;;;;;;;0.10;0.10;;;;;;;4.88;64.05;103408.09;5043686;28;20029;-82
2022/02/26 00:49:51;;;;;;;0.10;0.10;;;;;;;4.86;64.35;103408.03;5041513;28;20080;-82
2022/02/26 00:52:21;;;;;;;0.20;0.20;;;;;;;4.88;64.56;103400.22;5047054;28;20041;-83
2022/02/26 00:54:48;;;;;;;0.20;0.20;;;;;;;4.86;64.49;103395.78;5041882;28;20033;-82
2022/02/26 00:57:15;;;;;;;0.75;0.75;;;;;;;4.85;64.65;103396.63;5042115;28;20032;-82
2022/02/26 00:59:42;;;;;;;0.10;0.10;;;;;;;4.85;64.29;103396.63;5044524;28;20103;-83
2022/02/26 01:02:09;;;;;;;0.20;0.20;;;;;;;4.81;65.12;103392.06;5044191;28;20056;-82
2022/02/26 01:04:37;;;;;;;0.20;0.20;;;;;;;4.76;65.20;103385.72;5045829;28;20017;-83
2022/02/26 01:07:05;;;;;;;0.40;0.40;;;;;;;4.73;64.73;103395.19;5042239;28;20033;-81
2022/02/26 01:09:32;;;;;;;0.10;0.10;;;;;;;4.68;64.46;103397.59;5044567;28;20025;-82
2022/02/26 01:11:58;;;;;;;0.10;0.10;;;;;;;4.66;64.50;103401.84;5047377;28;20032;-82
2022/02/26 01:14:25;;;;;;;0.10;0.10;;;;;;;4.63;64.90;103400.00;5044200;28;20104;-82
2022/02/26 01:16:51;;;;;;;0.10;0.10;;;;;;;4.65;65.12;103397.47;5045031;28;20021;-83
2022/02/26 01:19:18;;;;;;;0.10;0.10;;;;;;;4.67;64.48;103401.97;5046329;28;20038;-82
2022/02/26 01:21:44;;;;;;;0.10;0.10;;;;;;;4.63;64.46;103404.34;5044263;28;20384;-82
2022/02/26 01:24:11;;;;;;;0.10;0.10;;;;;;;4.60;64.55;103402.50;5046085;28;20021;-82
2022/02/26 01:26:38;;;;;;;0.10;0.10;;;;;;;4.56;64.55;103402.28;5039289;28;20083;-82
2022/02/26 01:29:12;;;;;;;0.13;0.13;;;;;;;4.55;64.19;103401.38;5043190;28;20431;-81
2022/02/26 01:31:48;;;;;;;0.10;0.10;;;;;;;4.56;64.99;103386.53;5046249;28;20037;-81
2022/02/26 01:34:23;;;;;;;0.10;0.10;;;;;;;4.53;64.20;103379.41;5043699;28;20049;-81
2022/02/26 01:36:59;;;;;;;0.10;0.10;;;;;;;4.49;65.25;103377.47;5040451;28;20031;-82
2022/02/26 01:39:26;;;;;;;0.57;0.57;;;;;;;4.42;64.77;103368.41;5041860;28;20041;-82
2022/02/26 01:41:53;;;;;;;0.10;0.10;;;;;;;4.38;64.82;103376.97;5034269;28;20025;-81
2022/02/26 01:44:20;;;;;;;0.20;0.20;;;;;;;4.32;64.42;103374.94;5044504;28;20025;-83
2022/02/26 01:46:46;;;;;;;0.10;0.10;;;;;;;4.29;65.15;103369.56;5043225;28;20013;-82
2022/02/26 01:49:12;;;;;;;0.40;0.40;;;;;;;4.25;64.65;103370.25;5041059;28;20029;-82
2022/02/26 01:51:39;;;;;;;0.10;0.10;;;;;;;4.21;65.63;103371.84;5041145;28;20028;-82
2022/02/26 01:54:05;;;;;;;0.17;0.17;;;;;;;4.19;65.15;103369.97;5045219;28;20029;-82
2022/02/26 01:56:33;;;;;;;0.47;0.47;;;;;;;4.17;63.86;103372.50;5045195;28;20075;-83
2022/02/26 01:58:59;;;;;;;0.68;0.68;;;;;;;4.15;64.65;103362.75;5039786;28;20108;-83
2022/02/26 02:01:25;;;;;;;0.10;0.10;;;;;;;4.15;64.59;103365.38;5041320;28;20386;-82
2022/02/26 02:03:51;;;;;;;0.10;0.10;;;;;;;4.14;64.38;103361.88;5043281;28;20032;-82
2022/02/26 02:06:18;;;;;;;0.13;0.13;;;;;;;4.12;64.22;103363.50;5041065;28;20128;-81
2022/02/26 02:08:45;;;;;;;0.10;0.10;;;;;;;4.11;64.68;103367.00;5042488;28;20044;-82
2022/02/26 02:11:11;;;;;;;0.10;0.10;;;;;;;4.16;65.15;103375.06;5044931;28;20021;-81
2022/02/26 02:13:38;;;;;;;0.17;0.17;;;;;;;4.16;64.71;103373.34;5044556;28;20392;-81
2022/02/26 02:16:05;;;;;;;0.10;0.10;;;;;;;4.10;65.62;103387.88;5040203;28;20034;-82
2022/02/26 02:18:31;;;;;;;0.10;0.10;;;;;;;4.16;65.73;103393.44;5045360;28;20080;-82
2022/02/26 02:20:58;;;;;;;0.10;0.10;;;;;;;4.18;65.38;103383.91;5042120;28;20025;-82
2022/02/26 02:23:25;;;;;;;0.10;0.10;;;;;;;4.23;65.86;103392.00;5043214;28;20105;-81
2022/02/26 02:25:54;;;;;;;0.15;0.15;;;;;;;4.27;65.59;103383.44;5038508;28;20064;-82
2022/02/26 02:28:23;;;;;;;0.20;0.20;;;;;;;4.28;65.98;103391.38;5040517;28;20033;-80
2022/02/26 02:30:50;;;;;;;0.10;0.10;;;;;;;4.31;65.62;103390.63;5035639;28;20021;-82
2022/02/26 02:33:16;;;;;;;0.10;0.10;;;;;;;4.33;65.79;103386.34;5044094;28;20069;-82
2022/02/26 02:35:43;;;;;;;0.10;0.10;;;;;;;4.31;65.08;103385.38;5042855;28;20032;-82
2022/02/26 02:38:15;;;;;;;0.10;0.10;;;;;;;4.40;65.23;103388.44;5039516;28;20025;-82
2022/02/26 02:40:43;;;;;;;0.20;0.20;;;;;;;4.42;66.00;103385.88;5042041;28;20029;-82
2022/02/26 02:43:10;;;;;;;0.10;0.10;;;;;;;4.42;65.77;103384.16;5038486;28;20036;-81
2022/02/26 02:45:38;;;;;;;1.95;1.85;;;;;;;4.39;67.08;103394.53;5032208;28;20030;-81
2022/02/26 02:48:04;;;;;;;0.10;0.10;;;;;;;4.43;66.61;103395.56;5045961;28;20415;-82
2022/02/26 02:50:31;;;;;;;0.10;0.10;;;;;;;4.46;66.78;103391.34;5047808;28;20036;-79
2022/02/26 02:52:59;;;;;;;0.10;0.10;;;;;;;4.51;66.74;103410.84;5043750;28;20021;-82
2022/02/26 02:55:25;;;;;;;0.10;0.10;;;;;;;4.49;66.99;103414.22;5043769;28;20025;-82
2022/02/26 02:57:52;;;;;;;0.10;0.10;;;;;;;4.48;66.58;103410.69;5045850;28;20018;-83
2022/02/26 03:00:19;;;;;;;0.65;0.47;;;;;;;4.53;66.85;103410.91;5038391;28;20056;-82
2022/02/26 03:02:46;;;;;;;0.10;0.10;;;;;;;4.57;66.31;103417.22;5038403;28;20076;-83
2022/02/26 03:05:14;;;;;;;0.10;0.10;;;;;;;4.50;66.95;103416.91;5043214;28;20078;-82
2022/02/26 03:07:41;;;;;;;0.10;0.10;;;;;;;4.52;66.74;103417.91;5038658;28;20030;-82
2022/02/26 03:10:07;;;;;;;0.10;0.10;;;;;;;4.51;66.32;103421.34;5042210;28;20029;-82
2022/02/26 03:12:34;;;;;;;0.10;0.10;;;;;;;4.50;65.78;103422.16;5039818;28;20083;-82
2022/02/26 03:15:00;;;;;;;0.20;0.20;;;;;;;4.47;65.46;103429.88;5045356;28;20112;-81
2022/02/26 03:17:26;;;;;;;0.10;0.10;;;;;;;4.44;66.37;103429.75;5044101;28;20029;-82
2022/02/26 03:19:52;;;;;;;0.10;0.10;;;;;;;4.44;66.44;103440.25;5044370;28;20029;-82
2022/02/26 03:22:20;;;;;;;0.10;0.10;;;;;;;4.39;66.87;103439.16;5043182;28;20033;-82
2022/02/26 03:24:47;;;;;;;0.13;0.13;;;;;;;4.37;67.10;103443.41;5041874;28;20099;-83
2022/02/26 03:27:14;;;;;;;0.25;0.25;;;;;;;4.38;66.55;103445.22;5045705;28;20243;-82
2022/02/26 03:29:41;;;;;;;0.20;0.20;;;;;;;4.36;66.22;103447.78;5040150;28;20037;-81
2022/02/26 03:32:08;;;;;;;0.10;0.10;;;;;;;4.35;66.51;103447.72;5041225;28;20040;-81
2022/02/26 03:34:35;;;;;;;0.10;0.10;;;;;;;4.32;66.11;103455.41;5041473;28;20040;-81
2022/02/26 03:37:02;;;;;;;0.10;0.10;;;;;;;4.29;66.83;103455.28;5040972;28;20033;-82
2022/02/26 03:39:31;;;;;;;0.10;0.10;;;;;;;4.27;66.09;103446.44;5042493;28;20116;-82
2022/02/26 03:41:59;;;;;;;0.10;0.10;;;;;;;4.23;66.26;103449.75;5046576;28;20022;-81
2022/02/26 03:44:25;;;;;;;0.10;0.10;;;;;;;4.17;65.27;103456.47;5046001;28;20034;-81
2022/02/26 03:46:52;;;;;;;2.75;1.92;;;;;;;4.13;65.42;103464.13;5047092;28;20033;-82
2022/02/26 03:49:18;;;;;;;0.20;0.20;;;;;;;4.08;65.93;103474.41;5048192;28;20449;-82
2022/02/26 03:51:44;;;;;;;0.10;0.10;;;;;;;4.07;65.89;103480.47;5044819;28;20038;-82
2022/02/26 03:54:11;;;;;;;0.10;0.10;;;;;;;4.04;65.86;103488.19;5046619;28;20036;-81
2022/02/26 03:56:37;;;;;;;0.10;0.10;;;;;;;4.02;66.56;103476.72;5047967;28;20379;-81
2022/02/26 03:59:03;;;;;;;0.10;0.10;;;;;;;4.00;66.27;103486.22;5048642;28;20168;-82
2022/02/26 04:01:29;;;;;;;0.08;0.08;;;;;;;3.96;66.02;103482.59;5045558;28;20029;-82
2022/02/26 04:03:56;;;;;;;0.10;0.10;;;;;;;3.95;65.96;103480.78;5044147;28;20021;-81
2022/02/26 04:06:22;;;;;;;0.10;0.10;;;;;;;3.93;66.31;103489.41;5041258;28;20030;-81
2022/02/26 04:08:48;;;;;;;0.10;0.10;;;;;;;3.91;65.62;103483.16;5044244;28;20100;-81
2022/02/26 04:11:14;;;;;;;0.10;0.10;;;;;;;3.89;66.47;103481.34;5047433;28;20021;-82
2022/02/26 04:13:41;;;;;;;0.10;0.10;;;;;;;3.89;66.39;103481.34;5044316;28;20029;-81
2022/02/26 04:16:07;;;;;;;0.10;0.10;;;;;;;3.86;66.72;103478.59;5043034;28;20053;-82
2022/02/26 04:18:36;;;;;;;0.20;0.20;;;;;;;3.89;66.20;103486.59;5046432;28;20029;-81
2022/02/26 04:21:02;;;;;;;0.10;0.10;;;;;;;3.85;65.81;103484.66;5044273;28;20090;-82
2022/02/26 04:23:28;;;;;;;0.20;0.20;;;;;;;3.85;65.85;103486.34;5041300;28;20048;-81
2022/02/26 04:25:55;;;;;;;0.10;0.10;;;;;;;3.81;66.67;103487.91;5040017;28;20024;-82
2022/02/26 04:28:21;;;;;;;0.10;0.10;;;;;;;3.79;65.90;103497.47;5044285;28;20064;-82
2022/02/26 04:30:49;;;;;;;0.20;0.20;;;;;;;3.76;66.67;103494.66;5044918;28;20028;-82
2022/02/26 04:33:16;;;;;;;0.10;0.10;;;;;;;3.75;66.43;103502.47;5043379;28;20029;-82
2022/02/26 04:35:42;;;;;;;0.10;0.10;;;;;;;3.72;66.60;103492.72;5045907;28;20025;-81
2022/02/26 04:38:09;;;;;;;0.10;0.10;;;;;;;3.72;66.48;103503.19;5043916;28;20040;-82
2022/02/26 04:40:35;;;;;;;0.10;0.10;;;;;;;3.70;66.83;103494.34;5046387;28;20464;-82
2022/02/26 04:43:01;;;;;;;0.10;0.10;;;;;;;3.69;66.81;103503.94;5042579;28;20025;-81
2022/02/26 04:45:28;;;;;;;0.20;0.20;;;;;;;3.68;66.18;103493.38;5046188;28;20356;-82
2022/02/26 04:47:54;;;;;;;0.10;0.10;;;;;;;3.69;66.15;103497.81;5043639;28;20037;-81
2022/02/26 04:50:20;;;;;;;0.20;0.20;;;;;;;3.68;66.29;103504.75;5045100;28;20052;-82
2022/02/26 04:52:46;;;;;;;0.10;0.10;;;;;;;3.68;66.26;103502.13;5044886;28;20115;-81
2022/02/26 04:55:13;;;;;;;0.10;0.10;;;;;;;3.67;66.59;103507.31;5045047;28;20047;-82
2022/02/26 04:57:40;;;;;;;0.10;0.10;;;;;;;3.67;66.09;103515.19;5045288;28;20056;-82
2022/02/26 05:00:09;;;;;;;0.30;0.30;;;;;;;3.66;66.50;103513.38;5040856;28;20107;-82
2022/02/26 05:02:36;;;;;;;0.10;0.10;;;;;;;3.64;66.25;103515.94;5042865;28;20036;-83
2022/02/26 05:05:03;;;;;;;0.30;0.30;;;;;;;3.64;66.78;103504.50;5046447;28;20132;-81
2022/02/26 05:07:29;;;;;;;0.10;0.10;;;;;;;3.63;66.24;103511.50;5043577;28;20037;-82
2022/02/26 05:09:55;;;;;;;0.10;0.10;;;;;;;3.65;66.26;103514.19;5038496;28;20022;-81
2022/02/26 05:12:22;;;;;;;0.20;0.20;;;;;;;3.68;66.39;103512.63;5043313;28;20028;-81
2022/02/26 05:14:49;;;;;;;0.10;0.10;;;;;;;3.71;66.43;103519.75;5044533;28;20075;-81
2022/02/26 05:17:16;;;;;;;0.20;0.20;;;;;;;3.70;66.33;103515.31;5043585;28;20025;-82
2022/02/26 05:19:42;;;;;;;0.10;0.10;;;;;;;3.68;66.25;103517.88;5044660;28;20028;-83
2022/02/26 05:22:08;;;;;;;0.50;0.50;;;;;;;3.68;66.59;103522.22;5044613;28;20024;-82
2022/02/26 05:24:35;;;;;;;0.55;0.55;;;;;;;3.68;66.21;103514.38;5045564;28;20040;-82
2022/02/26 05:27:01;;;;;;;0.10;0.10;;;;;;;3.67;66.83;103518.69;5042945;28;20067;-81
2022/02/26 05:29:27;;;;;;;0.10;0.10;;;;;;;3.67;66.75;103520.41;5038872;28;20033;-82
2022/02/26 05:31:53;;;;;;;0.10;0.10;;;;;;;3.67;66.63;103520.41;5037411;28;20124;-82
2022/02/26 05:34:19;;;;;;;0.10;0.10;;;;;;;3.65;66.68;103517.72;5050600;28;20116;-82
2022/02/26 05:36:45;;;;;;;0.20;0.20;;;;;;;3.65;66.76;103527.28;5042153;28;20071;-82
2022/02/26 05:39:12;;;;;;;0.10;0.10;;;;;;;3.65;66.29;103532.53;5046448;28;20119;-81
2022/02/26 05:41:38;;;;;;;0.10;0.10;;;;;;;3.65;66.50;103532.53;5046538;28;20025;-81
2022/02/26 05:44:05;;;;;;;0.10;0.10;;;;;;;3.64;66.97;103541.22;5044518;28;20033;-80
2022/02/26 05:46:33;;;;;;;0.20;0.20;;;;;;;3.64;66.71;103546.47;5044620;28;20025;-81
2022/02/26 05:48:59;;;;;;;0.10;0.10;;;;;;;3.64;66.44;103557.88;5048777;28;20074;-82
2022/02/26 05:51:25;;;;;;;0.10;0.10;;;;;;;3.63;66.92;103544.69;5041333;28;20036;-82
2022/02/26 05:53:52;;;;;;;0.10;0.10;;;;;;;3.65;66.93;103554.44;5039153;28;20036;-82
2022/02/26 05:56:18;;;;;;;0.20;0.20;;;;;;;3.66;67.07;103560.56;5043689;28;20028;-82
2022/02/26 05:58:44;;;;;;;0.10;0.10;;;;;;;3.67;66.82;103552.78;5038694;28;20107;-82
2022/02/26 06:01:10;;;;;;;0.10;0.10;;;;;;;3.72;66.46;103560.88;5046992;28;20037;-81
2022/02/26 06:03:36;;;;;;;0.10;0.10;;;;;;;3.70;66.72;103562.53;5040727;28;20029;-82
2022/02/26 06:06:03;;;;;;;0.10;0.10;;;;;;;3.73;66.89;103557.47;5043211;28;20033;-83
2022/02/26 06:08:29;;;;;;;0.10;0.10;;;;;;;3.75;67.30;103566.31;5041568;28;20033;-81
2022/02/26 06:10:55;;;;;;;0.10;0.10;;;;;;;3.76;67.18;103562.84;5040634;28;20078;-83
2022/02/26 06:13:21;;;;;;;0.45;0.43;;;;;;;3.77;66.50;103569.00;5032111;28;20499;-82
2022/02/26 06:15:47;;;;;;;0.10;0.10;;;;;;;3.75;67.18;103565.41;5046021;28;20072;-82
2022/02/26 06:18:14;;;;;;;0.10;0.10;;;;;;;3.73;66.83;103573.19;5040421;28;20029;-83
2022/02/26 06:20:40;;;;;;;0.10;0.10;;;;;;;3.72;67.12;103576.63;5039989;28;20036;-83
2022/02/26 06:23:06;;;;;;;0.10;0.10;;;;;;;3.70;66.86;103573.94;5041890;28;20030;-82
2022/02/26 06:25:33;;;;;;;0.75;0.75;;;;;;;3.69;67.25;103571.22;5042016;28;20033;-82
2022/02/26 06:27:59;;;;;;;0.10;0.10;;;;;;;3.69;67.19;103586.97;5043734;28;20029;-82
2022/02/26 06:30:26;;;;;;;0.10;0.10;;;;;;;3.69;67.09;103584.34;5039780;28;20527;-82
2022/02/26 06:32:54;;;;;;;0.10;0.10;;;;;;;3.71;66.99;103585.31;5039887;28;20499;-83
2022/02/26 06:35:20;;;;;;;0.10;0.10;;;;;;;3.69;67.05;103590.47;5047292;28;20032;-81
2022/02/26 06:37:46;;;;;;;0.10;0.10;;;;;;;3.69;67.00;103589.59;5037160;28;20477;-82
2022/02/26 06:40:13;;;;;;;0.20;0.20;;;;;;;3.69;66.93;103593.09;5033236;28;20045;-82
2022/02/26 06:42:39;;;;;;;0.10;0.10;;;;;;;3.71;66.78;103580.06;5032386;28;20485;-82
2022/02/26 06:45:06;;;;;;;0.10;0.10;;;;;;;3.72;67.02;103581.88;5032472;28;20105;-80
2022/02/26 06:47:32;;;;;;;0.10;0.10;;;;;;;3.73;66.98;103581.94;5032854;28;20029;-82
2022/02/26 06:49:58;;;;;;;0.10;0.10;;;;;;;3.76;66.98;103588.19;5032344;28;20036;-83
2022/02/26 06:52:27;;;;;;;0.10;0.10;;;;;;;3.76;67.38;103586.44;5036865;28;20414;-83
2022/02/26 06:54:53;;;;;;;0.20;0.20;;;;;;;3.79;67.28;103576.13;5045212;28;20581;-82
2022/02/26 06:57:19;;;;;;;0.10;0.10;;;;;;;3.82;67.25;103580.63;5045762;28;20030;-78
2022/02/26 06:59:45;;;;;;;0.10;0.10;;;;;;;3.85;66.99;103588.66;5032632;28;20120;-82
2022/02/26 07:02:11;;;;;;;0.20;0.20;;;;;;;3.87;67.24;103590.53;5043123;28;20102;-82
2022/02/26 07:04:37;;;;;;;0.10;0.10;;;;;;;3.89;67.24;103591.53;5032836;28;20032;-81
2022/02/26 07:07:04;;;;;;;0.10;0.10;;;;;;;3.93;67.27;103591.69;5034647;28;20091;-83
2022/02/26 07:09:31;;;;;;;0.10;0.10;;;;;;;3.97;67.40;103583.16;5032271;28;20021;-81
2022/02/26 07:11:57;;;;;;;0.10;0.10;;;;;;;4.01;67.03;103593.88;5034392;28;20025;-82
2022/02/26 07:14:24;;;;;;;0.10;0.10;;;;;;;4.05;67.67;103597.56;5045425;28;20075;-83
2022/02/26 07:16:50;;;;;;;0.10;0.10;;;;;;;4.09;67.55;103610.03;5040393;28;20120;-81
2022/02/26 07:19:16;;;;;;;0.17;0.17;;;;;;;4.12;67.39;103610.16;5036972;28;20070;-82
2022/02/26 07:21:43;;;;;;;0.10;0.10;;;;;;;4.16;67.59;103609.53;5046581;28;20084;-83
2022/02/26 07:24:09;;;;;;;0.10;0.10;;;;;;;4.20;66.88;103614.09;5044041;28;20037;-83
2022/02/26 07:26:35;;;;;;;0.10;0.10;;;;;;;4.24;67.39;103622.09;5055296;28;20029;-83
2022/02/26 07:29:02;;;;;;;0.20;0.20;;;;;;;4.26;67.19;103623.09;5036388;28;20124;-82
2022/02/26 07:31:29;;;;;;;0.10;0.10;;;;;;;4.27;67.51;103624.91;5040929;28;20102;-81
2022/02/26 07:33:56;;;;;;;0.10;0.10;;;;;;;4.31;67.43;103617.28;5046612;28;20036;-81
2022/02/26 07:36:23;;;;;;;0.10;0.10;;;;;;;4.33;67.45;103619.97;5044020;28;20510;-82
2022/02/26 07:38:49;;;;;;;0.17;0.17;;;;;;;4.35;67.46;103631.47;5042890;28;20049;-81
2022/02/26 07:41:15;;;;;;;0.10;0.10;;;;;;;4.36;67.40;103633.22;5035562;28;20469;-82
2022/02/26 07:43:42;;;;;;;0.10;0.10;;;;;;;4.38;67.48;103629.84;5040624;28;20032;-82
2022/02/26 07:46:08;;;;;;;0.20;0.20;;;;;;;4.42;67.88;103637.91;5048369;28;20126;-81
2022/02/26 07:48:35;;;;;;;0.10;0.10;;;;;;;4.46;67.84;103637.22;5046476;28;20032;-83
2022/02/26 07:51:01;;;;;;;0.10;0.10;;;;;;;4.48;67.67;103640.84;5035480;28;20052;-81
2022/02/26 07:53:28;;;;;;;0.10;0.10;;;;;;;4.51;67.77;103641.91;5039555;28;20208;-82
2022/02/26 07:55:54;;;;;;;0.20;0.20;;;;;;;4.55;67.62;103637.72;5046856;28;20031;-83
2022/02/26 07:58:21;;;;;;;0.10;0.10;;;;;;;4.56;67.45;103641.22;5051933;28;20017;-82
2022/02/26 08:00:48;;;;;;;0.10;0.10;;;;;;;4.59;67.28;103637.03;5037254;28;20768;-82
2022/02/26 08:03:15;;;;;;;0.10;0.10;;;;;;;4.62;67.16;103634.56;5039300;28;20034;-81
2022/02/26 08:05:41;;;;;;;0.10;0.10;;;;;;;4.62;67.21;103633.66;5049408;28;20171;-83
2022/02/26 08:08:07;;;;;;;0.10;0.10;;;;;;;4.64;66.97;103622.38;5044935;28;20071;-83
2022/02/26 08:10:34;;;;;;;0.10;0.10;;;;;;;4.64;66.85;103626.75;5035108;28;20021;-82
2022/02/26 08:13:00;;;;;;;0.10;0.10;;;;;;;4.67;67.12;103634.78;5035047;28;20041;-82
2022/02/26 08:15:28;;;;;;;0.10;0.10;;;;;;;4.69;67.00;103630.50;5038598;28;20025;-82
2022/02/26 08:17:55;;;;;;;0.10;0.10;;;;;;;4.72;67.43;103627.13;5041948;28;20025;-80
2022/02/26 08:20:23;;;;;;;0.10;0.10;;;;;;;4.73;67.11;103621.94;5037648;28;20072;-83
2022/02/26 08:22:50;;;;;;;0.10;0.10;;;;;;;4.78;67.16;103630.06;5034912;28;20021;-83
2022/02/26 08:25:16;;;;;;;0.10;0.10;;;;;;;4.81;67.26;103636.38;5039701;28;20041;-83
2022/02/26 08:27:43;;;;;;;0.20;0.20;;;;;;;4.86;67.51;103637.47;5038167;28;20503;-82
2022/02/26 08:30:12;;;;;;;0.10;0.10;;;;;;;4.91;67.82;103631.53;5038526;28;20404;-81
2022/02/26 08:32:39;;;;;;;0.10;0.10;;;;;;;4.96;67.82;103637.91;5034577;28;20037;-82
2022/02/26 08:35:08;;;;;;;0.10;0.10;;;;;;;5.01;67.85;103647.84;5036137;28;20057;-81
2022/02/26 08:37:36;;;;;;;0.10;0.10;;;;;;;5.07;67.44;103636.72;5044477;28;20024;-81
2022/02/26 08:40:04;;;;;;;0.20;0.20;;;;;;;5.11;67.61;103633.41;5041642;28;20495;-82
2022/02/26 08:42:30;;;;;;;0.10;0.10;;;;;;;5.17;67.36;103631.06;5036793;28;20063;-83
2022/02/26 08:44:56;;;;;;;0.17;0.17;;;;;;;5.24;67.43;103631.38;5034819;28;20030;-83
2022/02/26 08:47:24;;;;;;;0.35;0.35;;;;;;;5.29;67.65;103629.84;5035103;28;20029;-82
2022/02/26 08:49:50;;;;;;;0.10;0.10;;;;;;;5.37;68.02;103622.31;5038589;28;20025;-83
2022/02/26 08:52:16;;;;;;;0.10;0.10;;;;;;;5.48;67.32;103627.25;5040440;28;20034;-83
2022/02/26 08:54:42;;;;;;;0.10;0.10;;;;;;;5.54;67.71;103626.63;5034510;28;20109;-83
2022/02/26 08:57:09;;;;;;;0.10;0.10;;;;;;;5.61;67.69;103631.34;5034067;28;20030;-83
2022/02/26 08:59:35;;;;;;;0.10;0.10;;;;;;;5.70;67.86;103627.34;5035635;28;20037;-84
2022/02/26 09:02:01;;;;;;;0.10;0.10;;;;;;;5.77;67.79;103630.31;5047174;28;20044;-84
2022/02/26 09:04:27;;;;;;;0.10;0.10;;;;;;;5.86;67.94;103636.78;5041463;28;20103;-84
2022/02/26 09:06:54;;;;;;;0.10;0.10;;;;;;;5.90;68.37;103636.13;5033743;28;20052;-83
2022/02/26 09:09:20;;;;;;;0.63;0.63;;;;;;;6.01;68.33;103634.88;5040879;28;20187;-84
2022/02/26 09:11:46;;;;;;;0.63;0.63;;;;;;;6.11;68.05;103634.44;5033983;28;20036;-83
2022/02/26 09:14:13;;;;;;;0.10;0.10;;;;;;;6.22;67.89;103636.63;5033604;28;20021;-84
2022/02/26 09:16:39;;;;;;;0.10;0.10;;;;;;;6.33;68.35;103632.75;5036463;28;20035;-84
2022/02/26 09:19:06;;;;;;;0.10;0.10;;;;;;;6.45;67.64;103635.88;5036219;28;20087;-84
2022/02/26 09:21:32;;;;;;;0.10;0.10;;;;;;;6.58;68.21;103633.75;5033393;28;20068;-84
2022/02/26 09:23:58;;;;;;;0.25;0.25;;;;;;;6.69;67.93;103629.88;5033580;28;20087;-83
2022/02/26 09:26:24;;;;;;;0.10;0.10;;;;;;;6.80;68.31;103623.28;5052610;28;20025;-83
2022/02/26 09:28:51;;;;;;;0.35;0.35;;;;;;;6.94;68.40;103628.19;5053296;28;20057;-82
2022/02/26 09:31:17;;;;;;;0.20;0.20;;;;;;;7.04;68.39;103625.09;5034398;28;20047;-83
2022/02/26 09:33:43;;;;;;;0.10;0.10;;;;;;;7.18;68.48;103632.63;5032144;28;20544;-83
2022/02/26 09:36:10;;;;;;;0.90;0.90;;;;;;;7.28;68.14;103635.69;5035418;28;20029;-83
2022/02/26 09:38:39;;;;;;;0.10;0.10;;;;;;;7.42;68.09;103632.69;5034235;28;20049;-82
2022/02/26 09:41:06;;;;;;;0.20;0.20;;;;;;;7.55;67.71;103634.06;5042042;28;20033;-83
2022/02/26 09:43:33;;;;;;;0.10;0.10;;;;;;;7.63;67.83;103639.59;5037052;28;20116;-83
2022/02/26 09:46:02;;;;;;;0.10;0.10;;;;;;;7.75;67.02;103637.44;5037967;28;20025;-83
2022/02/26 09:48:28;;;;;;;0.10;0.10;;;;;;;7.87;67.76;103631.72;5035416;28;20041;-84
2022/02/26 09:50:55;;;;;;;0.22;0.22;;;;;;;7.94;66.92;103629.34;5033186;28;20021;-83
2022/02/26 09:53:21;;;;;;;0.20;0.20;;;;;;;8.04;66.80;103632.31;5034637;28;20094;-83
2022/02/26 09:55:50;;;;;;;0.10;0.10;;;;;;;8.17;66.11;103628.34;5053694;28;20112;-84
2022/02/26 09:58:16;;;;;;;0.10;0.10;;;;;;;8.30;65.99;103632.31;5053558;28;20033;-84
2022/02/26 10:00:45;;;;;;;0.10;0.10;;;;;;;8.43;65.92;103640.69;5047645;28;20025;-83
2022/02/26 10:03:32;;;;;;;0.22;0.22;;;;;;;8.69;65.74;103632.78;5035765;28;20049;-83
2022/02/26 10:08:51;;;;;;;0.05;0.05;;;;;;;8.78;65.01;103636.59;5073179;27;20420;-83
2022/02/26 10:11:35;;;;;;;0.10;0.10;;;;;;;8.93;62.16;103636.19;5049982;28;20036;-81
2022/02/26 10:14:17;;;;;;;0.10;0.10;;;;;;;9.06;63.04;103648.97;5050222;28;20025;-83
2022/02/26 10:16:47;;;;;;;0.20;0.20;;;;;;;9.07;62.50;103646.34;5055010;28;20030;-83
2022/02/26 10:19:23;;;;;;;0.20;0.20;;;;;;;9.22;63.36;103643.28;5070606;28;20035;-85
2022/02/26 10:21:50;;;;;;;0.30;0.30;;;;;;;9.26;61.72;103646.94;5070405;28;20053;-82
2022/02/26 10:24:17;;;;;;;0.15;0.15;;;;;;;9.34;63.51;103644.50;5068942;28;20490;-82
2022/02/26 10:26:54;;;;;;;0.10;0.10;;;;;;;9.43;62.47;103652.72;5070047;28;20035;-82
2022/02/26 10:29:23;;;;;;;0.60;0.60;;;;;;;9.50;61.49;103646.75;5069450;28;20025;-81
2022/02/26 10:31:52;;;;;;;0.20;0.20;;;;;;;9.53;62.34;103643.28;5069873;28;20033;-82
2022/02/26 10:34:40;;;;;;;0.10;0.10;;;;;;;9.76;60.95;103638.66;5069872;28;20032;-83
2022/02/26 10:37:08;;;;;;;0.63;0.63;;;;;;;9.78;61.13;103646.66;5067492;28;20117;-81
2022/02/26 10:42:24;;;;;;;0.13;0.13;;;;;;;10.04;60.80;103631.47;5090345;27;20473;-81
2022/02/26 10:45:09;;;;;;;0.10;0.10;;;;;;;10.22;60.65;103632.81;5070231;28;20036;-81
2022/02/26 10:47:38;;;;;;;0.10;0.10;;;;;;;10.17;57.66;103638.03;5070229;28;20021;-81
2022/02/26 10:53:06;;;;;;;0.22;0.22;;;;;;;10.31;56.65;103623.38;5069773;28;20431;-80
2022/02/26 10:55:57;;;;;;;0.00;0.00;;;;;;;10.48;56.08;103622.94;5070540;28;20392;-81
2022/02/26 10:58:27;;;;;;;0.00;0.00;;;;;;;10.51;57.02;103628.31;5070331;28;20033;-81
2022/02/26 11:01:00;;;;;;;0.20;0.20;;;;;;;10.59;56.68;103624.13;5052546;28;20059;-81
2022/02/26 11:03:27;;;;;;;0.10;0.10;;;;;;;10.71;56.83;103617.31;5050232;28;20033;-81
2022/02/26 11:05:54;;;;;;;0.05;0.05;;;;;;;10.79;56.27;103628.97;5055538;28;20056;-81
2022/02/26 11:08:21;;;;;;;0.20;0.20;;;;;;;10.89;55.39;103617.75;5050053;28;20022;-81
2022/02/26 11:10:51;;;;;;;0.20;0.20;;;;;;;10.98;56.17;103620.59;5051996;28;20391;-81
2022/02/26 11:13:20;;;;;;;0.00;0.00;;;;;;;11.06;54.60;103619.88;5050232;28;20091;-81
2022/02/26 11:15:48;;;;;;;0.00;0.00;;;;;;;11.13;56.27;103617.41;5050121;28;20083;-81
2022/02/26 11:18:18;;;;;;;0.10;0.10;;;;;;;11.24;52.77;103619.38;5050351;28;20034;-81
2022/02/26 11:20:44;;;;;;;0.10;0.10;;;;;;;11.24;52.10;103619.38;5050217;28;20022;-81
2022/02/26 11:23:12;;;;;;;0.00;0.00;;;;;;;11.28;52.40;103618.63;5050155;28;20082;-81
2022/02/26 11:25:39;;;;;;;0.10;0.10;;;;;;;11.41;52.86;103609.16;5050223;28;20108;-81
2022/02/26 11:28:10;;;;;;;0.40;0.40;;;;;;;11.50;51.02;103617.28;5049904;28;20547;-81
2022/02/26 11:30:42;;;;;;;0.10;0.10;;;;;;;11.61;51.11;103615.78;5048743;28;20033;-80
2022/02/26 11:33:08;;;;;;;0.10;0.10;;;;;;;11.70;52.86;103611.50;5051148;28;20032;-81
2022/02/26 11:35:35;;;;;;;0.10;0.10;;;;;;;11.75;49.78;103607.16;5048967;28;20040;-81
2022/02/26 11:38:08;;;;;;;0.10;0.10;;;;;;;11.82;51.24;103606.41;5051344;28;20037;-81
2022/02/26 11:40:34;;;;;;;0.10;0.10;;;;;;;11.86;48.74;103602.94;5048985;28;20037;-80